sensor_id;sensor_type;location;lat;lon;timestamp;P1;durP1;ratioP1;P2;durP2;ratioP2
61938;SDS011;47897;50.322;18.892;2022-07-29T00:01:43;13.40;;;8.70;;
61938;SDS011;47897;50.322;18.892;2022-07-29T00:04:10;17.10;;;8.90;;
61938;SDS011;47897;50.322;18.892;2022-07-29T00:06:37;19.60;;;8.60;;
61938;SDS011;47897;50.322;18.892;2022-07-29T00:09:05;13.60;;;8.10;;
61938;SDS011;47897;50.322;18.892;2022-07-29T00:11:32;12.50;;;7.80;;
61938;SDS011;47897;50.322;18.892;2022-07-29T00:13:59;13.80;;;7.90;;
61938;SDS011;47897;50.322;18.892;2022-07-29T00:16:26;16.40;;;8.50;;
61938;SDS011;47897;50.322;18.892;2022-07-29T00:18:53;15.20;;;8.80;;
61938;SDS011;47897;50.322;18.892;2022-07-29T00:21:20;13.10;;;8.60;;
61938;SDS011;47897;50.322;18.892;2022-07-29T00:23:47;12.80;;;7.80;;
61938;SDS011;47897;50.322;18.892;2022-07-29T00:26:14;15.40;;;7.90;;
61938;SDS011;47897;50.322;18.892;2022-07-29T00:28:41;12.00;;;7.70;;
61938;SDS011;47897;50.322;18.892;2022-07-29T00:31:08;11.40;;;8.50;;
61938;SDS011;47897;50.322;18.892;2022-07-29T00:33:35;12.80;;;7.60;;
61938;SDS011;47897;50.322;18.892;2022-07-29T00:36:02;13.20;;;7.70;;
61938;SDS011;47897;50.322;18.892;2022-07-29T00:38:29;15.50;;;7.30;;
61938;SDS011;47897;50.322;18.892;2022-07-29T00:40:56;12.80;;;7.50;;
61938;SDS011;47897;50.322;18.892;2022-07-29T00:43:23;10.80;;;7.40;;
61938;SDS011;47897;50.322;18.892;2022-07-29T00:45:50;14.20;;;7.70;;
61938;SDS011;47897;50.322;18.892;2022-07-29T00:48:17;13.30;;;6.90;;
61938;SDS011;47897;50.322;18.892;2022-07-29T00:50:44;12.90;;;8.00;;
61938;SDS011;47897;50.322;18.892;2022-07-29T00:53:11;11.20;;;7.10;;
61938;SDS011;47897;50.322;18.892;2022-07-29T00:55:38;15.40;;;7.20;;
61938;SDS011;47897;50.322;18.892;2022-07-29T00:58:05;11.30;;;7.10;;
61938;SDS011;47897;50.322;18.892;2022-07-29T01:00:33;9.60;;;6.60;;
61938;SDS011;47897;50.322;18.892;2022-07-29T01:02:59;11.20;;;7.50;;
61938;SDS011;47897;50.322;18.892;2022-07-29T01:05:27;13.10;;;6.70;;
61938;SDS011;47897;50.322;18.892;2022-07-29T01:07:55;12.40;;;7.20;;
61938;SDS011;47897;50.322;18.892;2022-07-29T01:10:24;12.00;;;7.60;;
61938;SDS011;47897;50.322;18.892;2022-07-29T01:12:52;12.70;;;7.20;;
61938;SDS011;47897;50.322;18.892;2022-07-29T01:15:21;11.70;;;6.40;;
61938;SDS011;47897;50.322;18.892;2022-07-29T01:23:48;9.90;;;6.60;;
61938;SDS011;47897;50.322;18.892;2022-07-29T01:26:44;11.80;;;7.10;;
61938;SDS011;47897;50.322;18.892;2022-07-29T01:29:32;11.30;;;6.20;;
61938;SDS011;47897;50.322;18.892;2022-07-29T01:32:17;10.00;;;6.10;;
61938;SDS011;47897;50.322;18.892;2022-07-29T01:34:57;10.70;;;6.00;;
61938;SDS011;47897;50.322;18.892;2022-07-29T01:37:36;10.30;;;5.70;;
61938;SDS011;47897;50.322;18.892;2022-07-29T01:40:14;8.40;;;5.20;;
61938;SDS011;47897;50.322;18.892;2022-07-29T01:42:54;13.70;;;6.50;;
61938;SDS011;47897;50.322;18.892;2022-07-29T01:45:28;11.40;;;6.40;;
61938;SDS011;47897;50.322;18.892;2022-07-29T01:50:26;8.50;;;5.20;;
61938;SDS011;47897;50.322;18.892;2022-07-29T01:53:04;9.50;;;5.90;;
61938;SDS011;47897;50.322;18.892;2022-07-29T01:55:35;9.50;;;6.60;;
61938;SDS011;47897;50.322;18.892;2022-07-29T01:58:06;11.70;;;6.00;;
61938;SDS011;47897;50.322;18.892;2022-07-29T02:00:34;8.10;;;4.60;;
61938;SDS011;47897;50.322;18.892;2022-07-29T02:03:07;9.40;;;5.00;;
61938;SDS011;47897;50.322;18.892;2022-07-29T02:05:37;8.90;;;4.40;;
61938;SDS011;47897;50.322;18.892;2022-07-29T02:08:07;10.40;;;4.50;;
61938;SDS011;47897;50.322;18.892;2022-07-29T02:10:36;7.30;;;4.30;;
61938;SDS011;47897;50.322;18.892;2022-07-29T02:13:06;9.70;;;4.60;;
61938;SDS011;47897;50.322;18.892;2022-07-29T02:15:36;9.10;;;4.90;;
61938;SDS011;47897;50.322;18.892;2022-07-29T02:18:41;8.70;;;4.70;;
61938;SDS011;47897;50.322;18.892;2022-07-29T02:20:59;9.20;;;4.40;;
61938;SDS011;47897;50.322;18.892;2022-07-29T02:23:29;6.90;;;4.30;;
61938;SDS011;47897;50.322;18.892;2022-07-29T02:25:58;8.10;;;5.00;;
61938;SDS011;47897;50.322;18.892;2022-07-29T02:28:27;6.70;;;5.00;;
61938;SDS011;47897;50.322;18.892;2022-07-29T02:30:58;8.10;;;4.60;;
61938;SDS011;47897;50.322;18.892;2022-07-29T02:35:55;6.40;;;4.80;;
61938;SDS011;47897;50.322;18.892;2022-07-29T02:38:25;7.10;;;4.30;;
61938;SDS011;47897;50.322;18.892;2022-07-29T02:41:15;6.90;;;4.00;;
61938;SDS011;47897;50.322;18.892;2022-07-29T02:43:47;7.60;;;4.10;;
61938;SDS011;47897;50.322;18.892;2022-07-29T02:46:18;8.80;;;4.50;;
61938;SDS011;47897;50.322;18.892;2022-07-29T02:49:04;5.90;;;3.90;;
61938;SDS011;47897;50.322;18.892;2022-07-29T02:54:21;6.00;;;4.10;;
61938;SDS011;47897;50.322;18.892;2022-07-29T02:57:06;10.00;;;4.60;;
61938;SDS011;47897;50.322;18.892;2022-07-29T02:59:41;7.50;;;4.30;;
61938;SDS011;47897;50.322;18.892;2022-07-29T03:02:12;8.70;;;4.50;;
61938;SDS011;47897;50.322;18.892;2022-07-29T03:04:41;7.80;;;4.30;;
61938;SDS011;47897;50.322;18.892;2022-07-29T03:07:10;7.50;;;4.30;;
61938;SDS011;47897;50.322;18.892;2022-07-29T03:09:40;8.20;;;4.10;;
61938;SDS011;47897;50.322;18.892;2022-07-29T03:12:09;6.30;;;4.40;;
61938;SDS011;47897;50.322;18.892;2022-07-29T03:14:38;10.10;;;4.10;;
61938;SDS011;47897;50.322;18.892;2022-07-29T03:17:05;8.40;;;4.30;;
61938;SDS011;47897;50.322;18.892;2022-07-29T03:19:33;9.30;;;4.70;;
61938;SDS011;47897;50.322;18.892;2022-07-29T03:22:00;9.40;;;4.80;;
61938;SDS011;47897;50.322;18.892;2022-07-29T03:24:31;8.30;;;4.10;;
61938;SDS011;47897;50.322;18.892;2022-07-29T03:27:00;8.40;;;4.30;;
61938;SDS011;47897;50.322;18.892;2022-07-29T03:29:27;9.50;;;4.30;;
61938;SDS011;47897;50.322;18.892;2022-07-29T03:31:55;8.10;;;4.30;;
61938;SDS011;47897;50.322;18.892;2022-07-29T03:34:22;8.50;;;4.30;;
61938;SDS011;47897;50.322;18.892;2022-07-29T03:36:49;8.90;;;4.70;;
61938;SDS011;47897;50.322;18.892;2022-07-29T03:39:21;6.90;;;4.40;;
61938;SDS011;47897;50.322;18.892;2022-07-29T03:41:52;9.60;;;4.80;;
61938;SDS011;47897;50.322;18.892;2022-07-29T03:44:22;8.70;;;4.00;;
61938;SDS011;47897;50.322;18.892;2022-07-29T03:46:52;7.00;;;4.00;;
61938;SDS011;47897;50.322;18.892;2022-07-29T03:49:22;9.20;;;4.40;;
61938;SDS011;47897;50.322;18.892;2022-07-29T03:51:51;8.00;;;4.30;;
61938;SDS011;47897;50.322;18.892;2022-07-29T03:54:18;9.50;;;4.40;;
61938;SDS011;47897;50.322;18.892;2022-07-29T03:56:45;7.40;;;4.40;;
61938;SDS011;47897;50.322;18.892;2022-07-29T03:59:15;7.40;;;4.70;;
61938;SDS011;47897;50.322;18.892;2022-07-29T04:01:46;7.00;;;4.20;;
61938;SDS011;47897;50.322;18.892;2022-07-29T04:04:16;7.90;;;3.70;;
61938;SDS011;47897;50.322;18.892;2022-07-29T04:06:44;8.90;;;4.40;;
61938;SDS011;47897;50.322;18.892;2022-07-29T04:09:12;9.60;;;4.30;;
61938;SDS011;47897;50.322;18.892;2022-07-29T04:11:40;8.50;;;4.40;;
61938;SDS011;47897;50.322;18.892;2022-07-29T04:14:07;7.00;;;4.50;;
61938;SDS011;47897;50.322;18.892;2022-07-29T04:16:34;6.80;;;4.50;;
61938;SDS011;47897;50.322;18.892;2022-07-29T04:19:01;13.10;;;5.30;;
61938;SDS011;47897;50.322;18.892;2022-07-29T04:21:29;9.80;;;4.80;;
61938;SDS011;47897;50.322;18.892;2022-07-29T04:23:59;8.60;;;4.90;;
61938;SDS011;47897;50.322;18.892;2022-07-29T04:26:26;6.60;;;4.90;;
61938;SDS011;47897;50.322;18.892;2022-07-29T04:28:53;8.00;;;4.70;;
61938;SDS011;47897;50.322;18.892;2022-07-29T04:31:20;10.70;;;5.20;;
61938;SDS011;47897;50.322;18.892;2022-07-29T04:33:47;10.70;;;5.60;;
61938;SDS011;47897;50.322;18.892;2022-07-29T04:36:14;9.60;;;5.40;;
61938;SDS011;47897;50.322;18.892;2022-07-29T04:38:41;12.30;;;5.80;;
61938;SDS011;47897;50.322;18.892;2022-07-29T04:41:08;14.30;;;5.70;;
61938;SDS011;47897;50.322;18.892;2022-07-29T04:43:35;14.40;;;6.40;;
61938;SDS011;47897;50.322;18.892;2022-07-29T04:46:03;12.50;;;6.50;;
61938;SDS011;47897;50.322;18.892;2022-07-29T04:48:33;13.70;;;6.70;;
61938;SDS011;47897;50.322;18.892;2022-07-29T04:51:00;14.70;;;7.10;;
61938;SDS011;47897;50.322;18.892;2022-07-29T04:53:27;14.00;;;6.80;;
61938;SDS011;47897;50.322;18.892;2022-07-29T04:55:54;14.00;;;6.60;;
61938;SDS011;47897;50.322;18.892;2022-07-29T04:58:21;16.10;;;6.90;;
61938;SDS011;47897;50.322;18.892;2022-07-29T05:00:50;13.50;;;6.80;;
61938;SDS011;47897;50.322;18.892;2022-07-29T05:03:17;15.50;;;7.40;;
61938;SDS011;47897;50.322;18.892;2022-07-29T05:05:44;14.40;;;7.00;;
61938;SDS011;47897;50.322;18.892;2022-07-29T05:08:11;13.60;;;6.80;;
61938;SDS011;47897;50.322;18.892;2022-07-29T05:10:38;17.10;;;8.10;;
61938;SDS011;47897;50.322;18.892;2022-07-29T05:13:05;14.30;;;7.20;;
61938;SDS011;47897;50.322;18.892;2022-07-29T05:15:34;12.60;;;7.00;;
61938;SDS011;47897;50.322;18.892;2022-07-29T05:18:02;16.80;;;7.80;;
61938;SDS011;47897;50.322;18.892;2022-07-29T05:20:29;15.50;;;7.70;;
61938;SDS011;47897;50.322;18.892;2022-07-29T05:22:58;13.00;;;7.40;;
61938;SDS011;47897;50.322;18.892;2022-07-29T05:25:26;16.20;;;7.10;;
61938;SDS011;47897;50.322;18.892;2022-07-29T05:27:55;17.00;;;7.50;;
61938;SDS011;47897;50.322;18.892;2022-07-29T05:30:22;13.30;;;7.60;;
61938;SDS011;47897;50.322;18.892;2022-07-29T05:32:49;13.90;;;7.20;;
61938;SDS011;47897;50.322;18.892;2022-07-29T05:35:16;16.70;;;7.30;;
61938;SDS011;47897;50.322;18.892;2022-07-29T05:37:43;14.20;;;6.70;;
61938;SDS011;47897;50.322;18.892;2022-07-29T05:40:10;13.50;;;7.60;;
61938;SDS011;47897;50.322;18.892;2022-07-29T05:42:38;14.70;;;7.30;;
61938;SDS011;47897;50.322;18.892;2022-07-29T05:45:05;16.40;;;7.70;;
61938;SDS011;47897;50.322;18.892;2022-07-29T05:47:32;13.00;;;7.00;;
61938;SDS011;47897;50.322;18.892;2022-07-29T05:49:59;12.30;;;7.30;;
61938;SDS011;47897;50.322;18.892;2022-07-29T05:52:26;18.00;;;7.30;;
61938;SDS011;47897;50.322;18.892;2022-07-29T05:54:53;15.00;;;8.00;;
61938;SDS011;47897;50.322;18.892;2022-07-29T05:57:21;13.50;;;7.40;;
61938;SDS011;47897;50.322;18.892;2022-07-29T05:59:50;13.20;;;6.90;;
61938;SDS011;47897;50.322;18.892;2022-07-29T06:02:18;11.80;;;6.70;;
61938;SDS011;47897;50.322;18.892;2022-07-29T06:04:45;16.20;;;7.80;;
61938;SDS011;47897;50.322;18.892;2022-07-29T06:07:12;17.40;;;7.80;;
61938;SDS011;47897;50.322;18.892;2022-07-29T06:09:39;15.60;;;7.20;;
61938;SDS011;47897;50.322;18.892;2022-07-29T06:12:06;11.80;;;7.30;;
61938;SDS011;47897;50.322;18.892;2022-07-29T06:14:33;12.70;;;7.70;;
61938;SDS011;47897;50.322;18.892;2022-07-29T06:17:01;16.20;;;7.50;;
61938;SDS011;47897;50.322;18.892;2022-07-29T06:19:29;15.60;;;8.10;;
61938;SDS011;47897;50.322;18.892;2022-07-29T06:21:55;14.00;;;7.40;;
61938;SDS011;47897;50.322;18.892;2022-07-29T06:24:22;13.10;;;7.60;;
61938;SDS011;47897;50.322;18.892;2022-07-29T06:26:49;11.50;;;7.30;;
61938;SDS011;47897;50.322;18.892;2022-07-29T06:29:17;14.30;;;7.80;;
61938;SDS011;47897;50.322;18.892;2022-07-29T06:31:44;12.30;;;8.00;;
61938;SDS011;47897;50.322;18.892;2022-07-29T06:34:11;14.00;;;7.60;;
61938;SDS011;47897;50.322;18.892;2022-07-29T06:36:38;15.70;;;7.70;;
61938;SDS011;47897;50.322;18.892;2022-07-29T06:39:05;14.90;;;7.00;;
61938;SDS011;47897;50.322;18.892;2022-07-29T06:41:34;13.10;;;7.30;;
61938;SDS011;47897;50.322;18.892;2022-07-29T06:44:01;18.30;;;7.90;;
61938;SDS011;47897;50.322;18.892;2022-07-29T06:46:28;14.60;;;7.70;;
61938;SDS011;47897;50.322;18.892;2022-07-29T06:48:56;15.60;;;8.40;;
61938;SDS011;47897;50.322;18.892;2022-07-29T06:51:23;16.40;;;7.90;;
61938;SDS011;47897;50.322;18.892;2022-07-29T06:53:50;15.80;;;7.60;;
61938;SDS011;47897;50.322;18.892;2022-07-29T06:56:19;19.20;;;7.70;;
61938;SDS011;47897;50.322;18.892;2022-07-29T06:58:46;11.30;;;7.30;;
61938;SDS011;47897;50.322;18.892;2022-07-29T07:01:13;13.40;;;7.60;;
61938;SDS011;47897;50.322;18.892;2022-07-29T07:03:40;12.00;;;8.40;;
61938;SDS011;47897;50.322;18.892;2022-07-29T07:06:08;15.30;;;8.90;;
61938;SDS011;47897;50.322;18.892;2022-07-29T07:08:35;16.50;;;8.70;;
61938;SDS011;47897;50.322;18.892;2022-07-29T07:11:02;12.50;;;8.10;;
61938;SDS011;47897;50.322;18.892;2022-07-29T07:13:31;10.90;;;7.60;;
61938;SDS011;47897;50.322;18.892;2022-07-29T07:16:01;14.10;;;8.80;;
61938;SDS011;47897;50.322;18.892;2022-07-29T07:18:29;13.20;;;7.80;;
61938;SDS011;47897;50.322;18.892;2022-07-29T07:20:57;14.70;;;8.50;;
61938;SDS011;47897;50.322;18.892;2022-07-29T07:23:25;16.70;;;8.80;;
61938;SDS011;47897;50.322;18.892;2022-07-29T07:25:53;12.80;;;8.10;;
61938;SDS011;47897;50.322;18.892;2022-07-29T07:28:22;15.00;;;8.90;;
61938;SDS011;47897;50.322;18.892;2022-07-29T07:30:50;14.80;;;8.50;;
61938;SDS011;47897;50.322;18.892;2022-07-29T07:33:19;13.70;;;9.40;;
61938;SDS011;47897;50.322;18.892;2022-07-29T07:35:48;12.00;;;8.40;;
61938;SDS011;47897;50.322;18.892;2022-07-29T07:38:15;18.90;;;9.80;;
61938;SDS011;47897;50.322;18.892;2022-07-29T07:40:42;22.80;;;9.60;;
61938;SDS011;47897;50.322;18.892;2022-07-29T07:43:09;14.20;;;8.70;;
61938;SDS011;47897;50.322;18.892;2022-07-29T07:45:39;14.80;;;9.70;;
61938;SDS011;47897;50.322;18.892;2022-07-29T07:48:07;21.20;;;9.70;;
61938;SDS011;47897;50.322;18.892;2022-07-29T07:50:37;24.40;;;10.10;;
61938;SDS011;47897;50.322;18.892;2022-07-29T07:53:06;14.30;;;10.30;;
61938;SDS011;47897;50.322;18.892;2022-07-29T07:55:33;11.30;;;8.60;;
61938;SDS011;47897;50.322;18.892;2022-07-29T07:58:07;12.60;;;9.40;;
61938;SDS011;47897;50.322;18.892;2022-07-29T08:00:35;23.40;;;9.50;;
61938;SDS011;47897;50.322;18.892;2022-07-29T08:03:02;14.60;;;9.30;;
61938;SDS011;47897;50.322;18.892;2022-07-29T08:05:35;18.40;;;10.00;;
61938;SDS011;47897;50.322;18.892;2022-07-29T08:08:04;14.10;;;9.90;;
61938;SDS011;47897;50.322;18.892;2022-07-29T08:10:33;18.50;;;9.90;;
61938;SDS011;47897;50.322;18.892;2022-07-29T08:13:19;15.20;;;9.50;;
61938;SDS011;47897;50.322;18.892;2022-07-29T08:15:48;16.10;;;10.10;;
61938;SDS011;47897;50.322;18.892;2022-07-29T08:18:24;17.00;;;9.80;;
61938;SDS011;47897;50.322;18.892;2022-07-29T08:20:52;14.00;;;9.70;;
61938;SDS011;47897;50.322;18.892;2022-07-29T08:23:19;16.50;;;9.50;;
61938;SDS011;47897;50.322;18.892;2022-07-29T08:25:46;14.70;;;10.10;;
61938;SDS011;47897;50.322;18.892;2022-07-29T08:28:14;12.60;;;9.90;;
61938;SDS011;47897;50.322;18.892;2022-07-29T08:30:43;14.10;;;9.70;;
61938;SDS011;47897;50.322;18.892;2022-07-29T08:33:10;13.20;;;9.80;;
61938;SDS011;47897;50.322;18.892;2022-07-29T08:35:38;15.50;;;10.00;;
61938;SDS011;47897;50.322;18.892;2022-07-29T08:38:05;14.40;;;9.50;;
61938;SDS011;47897;50.322;18.892;2022-07-29T08:40:33;15.20;;;10.60;;
61938;SDS011;47897;50.322;18.892;2022-07-29T08:43:07;14.50;;;10.50;;
61938;SDS011;47897;50.322;18.892;2022-07-29T08:45:42;18.00;;;10.60;;
61938;SDS011;47897;50.322;18.892;2022-07-29T08:48:21;16.90;;;9.70;;
61938;SDS011;47897;50.322;18.892;2022-07-29T08:50:52;12.40;;;9.50;;
61938;SDS011;47897;50.322;18.892;2022-07-29T08:53:23;16.90;;;10.30;;
61938;SDS011;47897;50.322;18.892;2022-07-29T08:55:54;13.90;;;10.00;;
61938;SDS011;47897;50.322;18.892;2022-07-29T08:58:22;17.70;;;10.70;;
61938;SDS011;47897;50.322;18.892;2022-07-29T09:00:53;16.30;;;9.70;;
61938;SDS011;47897;50.322;18.892;2022-07-29T09:03:23;16.40;;;11.30;;
61938;SDS011;47897;50.322;18.892;2022-07-29T09:05:52;16.00;;;10.30;;
61938;SDS011;47897;50.322;18.892;2022-07-29T09:08:20;15.60;;;10.20;;
61938;SDS011;47897;50.322;18.892;2022-07-29T09:10:47;19.70;;;10.30;;
61938;SDS011;47897;50.322;18.892;2022-07-29T09:13:15;13.00;;;10.50;;
61938;SDS011;47897;50.322;18.892;2022-07-29T09:15:42;15.50;;;10.40;;
61938;SDS011;47897;50.322;18.892;2022-07-29T09:18:09;18.40;;;10.90;;
61938;SDS011;47897;50.322;18.892;2022-07-29T09:20:36;16.40;;;10.60;;
61938;SDS011;47897;50.322;18.892;2022-07-29T09:23:22;17.10;;;10.90;;
61938;SDS011;47897;50.322;18.892;2022-07-29T09:25:49;17.10;;;10.60;;
61938;SDS011;47897;50.322;18.892;2022-07-29T09:28:17;17.80;;;11.20;;
61938;SDS011;47897;50.322;18.892;2022-07-29T09:30:54;16.20;;;11.30;;
61938;SDS011;47897;50.322;18.892;2022-07-29T09:33:23;17.90;;;11.80;;
61938;SDS011;47897;50.322;18.892;2022-07-29T09:36:02;19.20;;;11.10;;
61938;SDS011;47897;50.322;18.892;2022-07-29T09:38:34;18.50;;;11.40;;
61938;SDS011;47897;50.322;18.892;2022-07-29T09:41:03;18.30;;;10.90;;
61938;SDS011;47897;50.322;18.892;2022-07-29T09:43:32;14.90;;;10.50;;
61938;SDS011;47897;50.322;18.892;2022-07-29T09:46:18;14.50;;;10.70;;
61938;SDS011;47897;50.322;18.892;2022-07-29T09:48:45;12.80;;;10.10;;
61938;SDS011;47897;50.322;18.892;2022-07-29T09:51:41;15.60;;;11.00;;
61938;SDS011;47897;50.322;18.892;2022-07-29T09:54:41;14.00;;;10.40;;
61938;SDS011;47897;50.322;18.892;2022-07-29T09:57:05;15.90;;;10.60;;
61938;SDS011;47897;50.322;18.892;2022-07-29T09:59:38;15.50;;;10.20;;
61938;SDS011;47897;50.322;18.892;2022-07-29T10:02:12;16.00;;;10.00;;
61938;SDS011;47897;50.322;18.892;2022-07-29T10:04:40;16.10;;;11.20;;
61938;SDS011;47897;50.322;18.892;2022-07-29T10:07:08;16.40;;;10.40;;
61938;SDS011;47897;50.322;18.892;2022-07-29T10:09:36;15.20;;;10.60;;
61938;SDS011;47897;50.322;18.892;2022-07-29T10:14:33;27.40;;;10.80;;
61938;SDS011;47897;50.322;18.892;2022-07-29T10:19:29;17.50;;;11.00;;
61938;SDS011;47897;50.322;18.892;2022-07-29T10:22:00;15.60;;;10.10;;
61938;SDS011;47897;50.322;18.892;2022-07-29T10:24:30;19.00;;;10.00;;
61938;SDS011;47897;50.322;18.892;2022-07-29T10:26:59;13.10;;;11.20;;
61938;SDS011;47897;50.322;18.892;2022-07-29T10:29:28;20.00;;;11.20;;
61938;SDS011;47897;50.322;18.892;2022-07-29T10:34:50;17.20;;;10.70;;
61938;SDS011;47897;50.322;18.892;2022-07-29T10:37:28;16.10;;;9.90;;
61938;SDS011;47897;50.322;18.892;2022-07-29T10:40:11;16.40;;;11.10;;
61938;SDS011;47897;50.322;18.892;2022-07-29T10:43:26;13.90;;;10.50;;
61938;SDS011;47897;50.322;18.892;2022-07-29T10:45:56;19.90;;;10.80;;
61938;SDS011;47897;50.322;18.892;2022-07-29T10:48:25;17.10;;;9.90;;
61938;SDS011;47897;50.322;18.892;2022-07-29T10:50:54;20.20;;;12.00;;
61938;SDS011;47897;50.322;18.892;2022-07-29T10:53:49;20.20;;;11.60;;
61938;SDS011;47897;50.322;18.892;2022-07-29T10:56:24;19.20;;;11.20;;
61938;SDS011;47897;50.322;18.892;2022-07-29T11:01:44;15.60;;;11.00;;
61938;SDS011;47897;50.322;18.892;2022-07-29T11:04:12;15.60;;;10.10;;
61938;SDS011;47897;50.322;18.892;2022-07-29T11:09:24;15.50;;;11.10;;
61938;SDS011;47897;50.322;18.892;2022-07-29T11:11:52;14.70;;;10.50;;
61938;SDS011;47897;50.322;18.892;2022-07-29T11:14:54;15.70;;;10.90;;
61938;SDS011;47897;50.322;18.892;2022-07-29T11:17:24;13.60;;;10.80;;
61938;SDS011;47897;50.322;18.892;2022-07-29T11:19:51;18.60;;;10.80;;
61938;SDS011;47897;50.322;18.892;2022-07-29T11:22:32;13.30;;;10.70;;
61938;SDS011;47897;50.322;18.892;2022-07-29T11:25:17;17.10;;;11.10;;
61938;SDS011;47897;50.322;18.892;2022-07-29T11:27:44;17.60;;;10.30;;
61938;SDS011;47897;50.322;18.892;2022-07-29T11:30:12;19.00;;;10.80;;
61938;SDS011;47897;50.322;18.892;2022-07-29T11:32:40;17.60;;;11.60;;
61938;SDS011;47897;50.322;18.892;2022-07-29T11:35:21;16.00;;;10.60;;
61938;SDS011;47897;50.322;18.892;2022-07-29T11:40:35;16.30;;;10.30;;
61938;SDS011;47897;50.322;18.892;2022-07-29T11:43:02;16.40;;;10.90;;
61938;SDS011;47897;50.322;18.892;2022-07-29T11:45:44;15.50;;;11.60;;
61938;SDS011;47897;50.322;18.892;2022-07-29T11:48:16;14.60;;;11.00;;
61938;SDS011;47897;50.322;18.892;2022-07-29T11:50:44;18.50;;;10.80;;
61938;SDS011;47897;50.322;18.892;2022-07-29T11:53:11;15.90;;;11.40;;
61938;SDS011;47897;50.322;18.892;2022-07-29T11:55:40;19.80;;;11.40;;
61938;SDS011;47897;50.322;18.892;2022-07-29T11:58:07;17.60;;;11.70;;
61938;SDS011;47897;50.322;18.892;2022-07-29T12:00:35;17.80;;;11.30;;
61938;SDS011;47897;50.322;18.892;2022-07-29T12:03:06;13.90;;;10.90;;
61938;SDS011;47897;50.322;18.892;2022-07-29T12:05:35;33.50;;;11.50;;
61938;SDS011;47897;50.322;18.892;2022-07-29T12:08:15;21.90;;;10.90;;
61938;SDS011;47897;50.322;18.892;2022-07-29T12:10:46;27.60;;;12.70;;
61938;SDS011;47897;50.322;18.892;2022-07-29T12:13:17;20.50;;;11.90;;
61938;SDS011;47897;50.322;18.892;2022-07-29T12:15:54;14.00;;;10.20;;
61938;SDS011;47897;50.322;18.892;2022-07-29T12:18:23;13.80;;;10.40;;
61938;SDS011;47897;50.322;18.892;2022-07-29T12:20:58;15.40;;;10.30;;
61938;SDS011;47897;50.322;18.892;2022-07-29T12:23:31;12.80;;;10.20;;
61938;SDS011;47897;50.322;18.892;2022-07-29T12:26:04;22.50;;;11.50;;
61938;SDS011;47897;50.322;18.892;2022-07-29T12:28:35;16.20;;;10.60;;
61938;SDS011;47897;50.322;18.892;2022-07-29T12:31:03;22.50;;;11.70;;
61938;SDS011;47897;50.322;18.892;2022-07-29T12:33:31;21.70;;;11.60;;
61938;SDS011;47897;50.322;18.892;2022-07-29T12:35:59;17.80;;;11.50;;
61938;SDS011;47897;50.322;18.892;2022-07-29T12:38:28;20.90;;;12.60;;
61938;SDS011;47897;50.322;18.892;2022-07-29T12:40:56;17.10;;;11.80;;
61938;SDS011;47897;50.322;18.892;2022-07-29T12:43:24;23.10;;;12.60;;
61938;SDS011;47897;50.322;18.892;2022-07-29T12:45:53;27.30;;;12.70;;
61938;SDS011;47897;50.322;18.892;2022-07-29T12:51:00;18.20;;;11.30;;
61938;SDS011;47897;50.322;18.892;2022-07-29T12:53:29;17.60;;;11.00;;
61938;SDS011;47897;50.322;18.892;2022-07-29T12:55:57;21.50;;;12.30;;
61938;SDS011;47897;50.322;18.892;2022-07-29T12:58:34;21.70;;;11.30;;
61938;SDS011;47897;50.322;18.892;2022-07-29T13:03:44;21.70;;;12.00;;
61938;SDS011;47897;50.322;18.892;2022-07-29T13:09:03;17.80;;;11.90;;
61938;SDS011;47897;50.322;18.892;2022-07-29T13:14:03;19.20;;;11.90;;
61938;SDS011;47897;50.322;18.892;2022-07-29T13:16:30;19.50;;;10.80;;
61938;SDS011;47897;50.322;18.892;2022-07-29T13:19:08;21.70;;;11.80;;
61938;SDS011;47897;50.322;18.892;2022-07-29T13:21:37;15.90;;;11.00;;
61938;SDS011;47897;50.322;18.892;2022-07-29T13:24:06;18.50;;;11.30;;
61938;SDS011;47897;50.322;18.892;2022-07-29T13:26:33;17.40;;;12.10;;
61938;SDS011;47897;50.322;18.892;2022-07-29T13:29:01;17.10;;;12.10;;
61938;SDS011;47897;50.322;18.892;2022-07-29T13:31:27;21.70;;;11.90;;
61938;SDS011;47897;50.322;18.892;2022-07-29T13:33:54;19.20;;;10.80;;
61938;SDS011;47897;50.322;18.892;2022-07-29T13:36:22;16.80;;;11.00;;
61938;SDS011;47897;50.322;18.892;2022-07-29T13:38:49;16.10;;;10.60;;
61938;SDS011;47897;50.322;18.892;2022-07-29T13:41:16;13.20;;;10.20;;
61938;SDS011;47897;50.322;18.892;2022-07-29T13:43:43;13.40;;;10.20;;
61938;SDS011;47897;50.322;18.892;2022-07-29T13:46:11;18.90;;;10.50;;
61938;SDS011;47897;50.322;18.892;2022-07-29T13:48:38;18.40;;;11.00;;
61938;SDS011;47897;50.322;18.892;2022-07-29T13:51:04;18.70;;;12.20;;
61938;SDS011;47897;50.322;18.892;2022-07-29T13:53:31;24.40;;;15.50;;
61938;SDS011;47897;50.322;18.892;2022-07-29T13:56:01;26.80;;;14.60;;
61938;SDS011;47897;50.322;18.892;2022-07-29T13:58:33;26.20;;;14.10;;
61938;SDS011;47897;50.322;18.892;2022-07-29T14:01:01;19.30;;;13.20;;
61938;SDS011;47897;50.322;18.892;2022-07-29T14:03:33;20.00;;;12.30;;
61938;SDS011;47897;50.322;18.892;2022-07-29T14:06:08;16.10;;;11.00;;
61938;SDS011;47897;50.322;18.892;2022-07-29T14:08:35;15.00;;;10.70;;
61938;SDS011;47897;50.322;18.892;2022-07-29T14:11:02;13.70;;;11.20;;
61938;SDS011;47897;50.322;18.892;2022-07-29T14:13:29;12.90;;;9.70;;
61938;SDS011;47897;50.322;18.892;2022-07-29T14:15:56;13.60;;;11.00;;
61938;SDS011;47897;50.322;18.892;2022-07-29T14:18:23;21.30;;;11.40;;
61938;SDS011;47897;50.322;18.892;2022-07-29T14:20:50;17.30;;;10.10;;
61938;SDS011;47897;50.322;18.892;2022-07-29T14:23:18;26.50;;;11.10;;
61938;SDS011;47897;50.322;18.892;2022-07-29T14:25:47;18.10;;;10.40;;
61938;SDS011;47897;50.322;18.892;2022-07-29T14:28:14;16.20;;;10.90;;
61938;SDS011;47897;50.322;18.892;2022-07-29T14:30:41;15.30;;;10.70;;
61938;SDS011;47897;50.322;18.892;2022-07-29T14:33:11;15.40;;;10.70;;
61938;SDS011;47897;50.322;18.892;2022-07-29T14:35:40;17.60;;;11.50;;
61938;SDS011;47897;50.322;18.892;2022-07-29T14:38:08;18.20;;;11.30;;
61938;SDS011;47897;50.322;18.892;2022-07-29T14:40:36;16.30;;;11.00;;
61938;SDS011;47897;50.322;18.892;2022-07-29T14:43:04;12.90;;;10.20;;
61938;SDS011;47897;50.322;18.892;2022-07-29T14:45:31;14.30;;;10.50;;
61938;SDS011;47897;50.322;18.892;2022-07-29T14:48:00;17.30;;;10.50;;
61938;SDS011;47897;50.322;18.892;2022-07-29T14:50:28;12.70;;;9.80;;
61938;SDS011;47897;50.322;18.892;2022-07-29T14:52:58;14.90;;;11.10;;
61938;SDS011;47897;50.322;18.892;2022-07-29T14:55:30;13.30;;;10.60;;
61938;SDS011;47897;50.322;18.892;2022-07-29T14:58:02;21.30;;;11.40;;
61938;SDS011;47897;50.322;18.892;2022-07-29T15:00:32;13.10;;;10.40;;
61938;SDS011;47897;50.322;18.892;2022-07-29T15:03:03;13.90;;;10.40;;
61938;SDS011;47897;50.322;18.892;2022-07-29T15:05:34;12.80;;;9.80;;
61938;SDS011;47897;50.322;18.892;2022-07-29T15:08:06;20.30;;;11.20;;
61938;SDS011;47897;50.322;18.892;2022-07-29T15:10:35;25.10;;;11.10;;
61938;SDS011;47897;50.322;18.892;2022-07-29T15:13:05;15.70;;;11.40;;
61938;SDS011;47897;50.322;18.892;2022-07-29T15:15:36;16.10;;;11.40;;